Date,TemperatureHighF,TemperatureAvgF,TemperatureLowF,DewpointHighF,DewpointAvgF,DewpointLowF,HumidityHigh,HumidityAvg,HumidityLow,PressureMaxIn,PressureMinIn,WindSpeedMaxMPH,WindSpeedAvgMPH,GustSpeedMaxMPH,PrecipitationSumIn
2013-3-1,89.4,87.1,81.3,81.3,80.0,78.1,90,79,75,29.44,29.41,10,3,10,0.00
2013-3-2,87.8,86.5,83.7,80.6,80.0,79.6,88,81,78,29.35,29.26,5,1,5,0.22
2013-3-3,88.7,83.0,78.6,82.3,78.2,75.6,92,85,77,29.41,29.26,10,2,10,1.28
2013-3-4,89.1,80.2,77.4,81.7,76.8,74.7,94,89,77,29.41,29.29,12,1,12,0.62
2013-3-5,91.4,82.8,77.0,81.7,77.5,74.5,93,85,68,29.44,29.35,10,1,10,0.04
2013-3-6,82.8,81.6,80.6,75.6,74.3,73.1,80,79,77,29.56,29.47,10,4,10,0.00
2013-3-7,88.9,83.6,78.6,77.3,74.7,72.3,87,75,67,29.56,29.47,16,4,16,0.00
2013-3-8,88.3,83.7,78.8,73.3,71.4,69.8,79,67,61,29.59,29.47,16,5,16,0.04
2013-3-9,87.1,83.1,77.0,74.8,72.9,70.6,81,71,66,29.59,29.50,12,4,12,0.00
2013-3-10,85.8,79.8,75.2,75.8,72.2,69.8,88,78,69,29.62,29.50,15,4,15,0.04
2013-3-11,88.7,80.2,75.2,74.3,71.3,68.9,86,75,63,29.59,29.47,15,4,15,0.25
2013-3-12,85.8,79.6,74.8,76.1,72.6,70.6,89,80,72,29.56,29.44,11,3,11,0.21
2013-3-13,81.7,78.3,75.2,75.5,73.3,70.4,88,85,79,29.50,29.41,11,4,11,0.46
2013-3-14,84.4,75.8,75.2,74.7,71.0,69.9,88,85,70,29.47,29.38,10,4,10,0.00
2013-3-18,85.6,82.5,80.6,69.2,68.7,67.7,68,63,56,29.62,29.53,5,2,5,0.00
2013-3-19,90.9,80.3,76.3,77.1,71.5,68.4,83,75,63,29.65,29.56,9,2,9,0.00
2013-3-20,90.9,89.3,86.4,77.9,76.2,73.9,67,65,64,29.56,29.50,9,2,9,0.00
2013-3-21,87.8,84.7,79.0,77.4,76.0,74.2,87,75,68,29.65,29.53,8,2,8,0.00
2013-3-22,83.3,80.5,76.3,78.8,76.6,72.7,92,88,83,29.74,29.59,11,3,11,0.96
2013-3-23,80.8,78.5,76.6,77.4,76.0,74.8,95,92,88,29.74,29.59,12,3,12,1.54
2013-3-24,80.1,78.8,77.4,75.3,75.0,74.4,91,88,85,29.68,29.62,10,4,10,0.37
2013-3-25,80.6,78.0,77.7,75.3,74.9,71.8,91,90,75,29.65,29.59,9,3,9,0.13
2013-3-26,80.4,80.2,80.1,73.3,73.1,72.8,79,79,78,29.65,29.65,4,0,4,0.00
2013-3-27,79.9,77.5,76.5,75.3,73.8,72.5,90,88,85,29.68,29.65,6,2,6,0.08
2013-3-28,83.8,80.4,75.2,75.9,73.5,70.8,91,80,70,29.71,29.62,13,5,13,0.04
2013-3-29,85.3,82.0,77.2,74.9,71.2,67.0,81,70,57,29.68,29.59,10,3,10,0.00
2013-3-30,77.2,74.1,72.0,71.8,69.1,67.2,87,84,78,29.71,29.59,11,2,11,0.04